createdAt,value
2023-05-11T00:08:49.616Z,97034.52
2023-05-11T00:18:52.714Z,97029.10
2023-05-11T00:28:56.019Z,97025.52
2023-05-11T00:38:59.062Z,97019.65
2023-05-11T00:49:02.308Z,97024.31
2023-05-11T00:59:05.734Z,97019.50
2023-05-11T01:09:46.539Z,97016.02
2023-05-11T01:19:59.207Z,97024.64
2023-05-11T01:30:40.687Z,97025.23
2023-05-11T01:40:45.226Z,97033.61
2023-05-11T01:50:51.113Z,97039.05
2023-05-11T02:00:55.952Z,97045.40
2023-05-11T02:11:01.005Z,97041.42
2023-05-11T02:21:05.534Z,97049.94
2023-05-11T02:31:13.065Z,97049.39
2023-05-11T02:41:26.133Z,97050.60
2023-05-11T02:51:38.818Z,97044.42
2023-05-11T03:01:43.675Z,97049.61
2023-05-11T03:11:47.491Z,97050.81
2023-05-11T03:21:52.712Z,97053.32
2023-05-11T03:31:56.064Z,97057.45
2023-05-11T03:42:01.785Z,97059.79
2023-05-11T03:52:06.426Z,97057.88
2023-05-11T04:02:09.655Z,97057.51
2023-05-11T04:12:13.027Z,97059.89
2023-05-11T04:22:18.296Z,97056.80
2023-05-11T04:32:21.451Z,97052.78
2023-05-11T04:42:24.576Z,97051.61
2023-05-11T04:52:30.310Z,97054.44
2023-05-11T05:02:33.638Z,97052.41
2023-05-11T05:12:37.310Z,97055.38
2023-05-11T05:22:41.865Z,97052.34
2023-05-11T05:32:45.352Z,97047.23
2023-05-11T05:42:48.589Z,97041.17
2023-05-11T05:52:56.501Z,97041.39
2023-05-11T06:03:01.897Z,97040.73
2023-05-11T06:13:06.168Z,97036.27
2023-05-11T06:23:09.932Z,97033.05
2023-05-11T06:33:15.870Z,97030.48
2023-05-11T06:43:19.811Z,97027.75
2023-05-11T06:53:24.721Z,97024.19
2023-05-11T07:03:28.759Z,97012.73
2023-05-11T07:13:52.516Z,97007.72
2023-05-11T07:23:58.480Z,96996.04
2023-05-11T07:34:01.947Z,96990.52
2023-05-11T07:44:05.835Z,96984.45
2023-05-11T07:54:08.975Z,96989.94
2023-05-11T08:04:12.118Z,96981.73
2023-05-11T08:14:15.874Z,96984.33
2023-05-11T08:24:18.951Z,96982.69
2023-05-11T08:34:23.358Z,96976.55
2023-05-11T08:44:27.421Z,96972.83
2023-05-11T08:54:30.585Z,96970.34
2023-05-11T09:04:35.451Z,96971.55
2023-05-11T09:14:39.171Z,96965.57
2023-05-11T09:24:43.264Z,96970.02
2023-05-11T09:34:46.875Z,96965.52
2023-05-11T09:44:53.029Z,96965.16
2023-05-11T09:54:56.075Z,96953.73
2023-05-11T10:05:11.702Z,96948.11
2023-05-11T10:15:16.969Z,96939.14
2023-05-11T10:25:23.003Z,96929.05
2023-05-11T10:35:27.265Z,96926.02
2023-05-11T10:45:56.758Z,96918.83
2023-05-11T10:56:34.629Z,96906.61
2023-05-11T11:06:41.288Z,96895.60
2023-05-11T11:17:15.569Z,96886.64
2023-05-11T11:27:18.760Z,96888.13
2023-05-11T11:37:23.404Z,96878.79
2023-05-11T11:47:27.126Z,96880.49
2023-05-11T11:57:30.444Z,96881.72
2023-05-11T12:07:34.308Z,96890.65
2023-05-11T12:17:39.014Z,96881.34
2023-05-11T12:27:58.228Z,96878.92
2023-05-11T12:38:05.171Z,96868.33
2023-05-11T12:48:11.025Z,96856.19
2023-05-11T12:58:16.084Z,96850.02
2023-05-11T13:08:20.399Z,96842.14
2023-05-11T13:18:24.174Z,96836.70
2023-05-11T13:28:27.820Z,96832.54
2023-05-11T13:38:31.021Z,96820.39
2023-05-11T13:48:34.129Z,96814.27
2023-05-11T13:58:37.382Z,96822.52
2023-05-11T14:08:40.653Z,96813.38
2023-05-11T14:18:44.546Z,96804.17
2023-05-11T14:28:50.097Z,96801.37
2023-05-11T14:38:54.453Z,96799.27
2023-05-11T14:48:57.782Z,96810.16
2023-05-11T14:59:00.992Z,96801.37
2023-05-11T15:09:04.409Z,96798.31
2023-05-11T15:19:07.601Z,96796.96
2023-05-11T15:29:11.163Z,96801.21
2023-05-11T15:39:16.488Z,96806.83
2023-05-11T15:49:19.725Z,96806.23
2023-05-11T15:59:22.972Z,96809.90
2023-05-11T16:09:26.164Z,96816.19
2023-05-11T16:19:30.317Z,96812.25
2023-05-11T16:29:33.784Z,96819.27
2023-05-11T16:39:36.969Z,96823.27
2023-05-11T16:49:40.074Z,96832.90
2023-05-11T16:59:43.337Z,96834.73
2023-05-11T17:09:46.762Z,96832.52
2023-05-11T17:19:49.956Z,96838.82
2023-05-11T17:29:53.244Z,96851.45
2023-05-11T17:40:23.452Z,96863.21
2023-05-11T17:50:26.598Z,96867.47
2023-05-11T18:00:32.290Z,96872.67
2023-05-11T18:10:35.871Z,96885.89
2023-05-11T18:20:39.404Z,96905.65
2023-05-11T18:31:07.369Z,96916.29
2023-05-11T18:41:10.786Z,96933.21
2023-05-11T18:51:18.991Z,96936.19
2023-05-11T19:01:26.049Z,96951.92
2023-05-11T19:11:36.393Z,96958.90
2023-05-11T19:21:41.884Z,96968.09
2023-05-11T19:31:45.070Z,96972.95
2023-05-11T19:41:51.445Z,96973.84
2023-05-11T19:51:55.032Z,96977.55
2023-05-11T20:02:04.346Z,96983.31
2023-05-11T20:12:32.623Z,96986.60
2023-05-11T20:22:36.895Z,96992.48
2023-05-11T20:43:13.731Z,96995.23
2023-05-11T20:53:17.738Z,96995.50
2023-05-11T21:03:21.084Z,96995.09
2023-05-11T21:13:24.435Z,96990.48
2023-05-11T21:23:29.019Z,96990.58
2023-05-11T21:33:32.800Z,96995.41
2023-05-11T21:44:01.701Z,96992.95
2023-05-11T21:54:04.968Z,96991.67
2023-05-11T22:04:09.365Z,96991.44
2023-05-11T22:14:14.375Z,96994.21
2023-05-11T22:24:17.637Z,97002.02
2023-05-11T22:34:24.735Z,97009.20
2023-05-11T22:44:28.761Z,97006.95
2023-05-11T22:54:31.944Z,97012.83
2023-05-11T23:04:35.110Z,97013.21
2023-05-11T23:14:38.227Z,97013.38
2023-05-11T23:25:06.654Z,97013.05
2023-05-11T23:35:09.705Z,97011.66
2023-05-11T23:45:13.570Z,97014.00
2023-05-11T23:55:41.694Z,97005.04
